sensor_id;sensor_type;location;lat;lon;timestamp;P1;durP1;ratioP1;P2;durP2;ratioP2
9334;SDS011;4706;41.844;26.082;2023-11-18T00:01:23;12.32;;;11.13;;
9334;SDS011;4706;41.844;26.082;2023-11-18T00:03:49;12.27;;;11.02;;
9334;SDS011;4706;41.844;26.082;2023-11-18T00:06:15;12.77;;;11.48;;
9334;SDS011;4706;41.844;26.082;2023-11-18T00:08:41;14.32;;;11.82;;
9334;SDS011;4706;41.844;26.082;2023-11-18T00:11:06;11.48;;;10.27;;
9334;SDS011;4706;41.844;26.082;2023-11-18T00:13:32;12.10;;;10.98;;
9334;SDS011;4706;41.844;26.082;2023-11-18T00:15:57;12.48;;;10.98;;
9334;SDS011;4706;41.844;26.082;2023-11-18T00:18:23;12.45;;;11.32;;
9334;SDS011;4706;41.844;26.082;2023-11-18T00:20:49;12.93;;;11.57;;
9334;SDS011;4706;41.844;26.082;2023-11-18T00:23:16;13.35;;;12.05;;
9334;SDS011;4706;41.844;26.082;2023-11-18T00:25:42;13.25;;;12.02;;
9334;SDS011;4706;41.844;26.082;2023-11-18T00:28:10;15.15;;;12.82;;
9334;SDS011;4706;41.844;26.082;2023-11-18T00:30:36;14.07;;;12.68;;
9334;SDS011;4706;41.844;26.082;2023-11-18T00:33:01;14.88;;;12.15;;
9334;SDS011;4706;41.844;26.082;2023-11-18T00:35:27;13.02;;;11.68;;
9334;SDS011;4706;41.844;26.082;2023-11-18T00:37:52;14.02;;;12.63;;
9334;SDS011;4706;41.844;26.082;2023-11-18T00:40:18;14.32;;;12.82;;
9334;SDS011;4706;41.844;26.082;2023-11-18T00:42:44;12.88;;;11.63;;
9334;SDS011;4706;41.844;26.082;2023-11-18T00:45:10;14.48;;;12.57;;
9334;SDS011;4706;41.844;26.082;2023-11-18T00:47:38;12.90;;;11.38;;
9334;SDS011;4706;41.844;26.082;2023-11-18T00:50:06;12.05;;;10.85;;
9334;SDS011;4706;41.844;26.082;2023-11-18T00:52:33;13.05;;;10.57;;
9334;SDS011;4706;41.844;26.082;2023-11-18T00:54:59;11.80;;;10.50;;
9334;SDS011;4706;41.844;26.082;2023-11-18T00:57:25;12.48;;;11.27;;
9334;SDS011;4706;41.844;26.082;2023-11-18T00:59:51;11.45;;;10.35;;
9334;SDS011;4706;41.844;26.082;2023-11-18T01:02:17;12.43;;;11.32;;
9334;SDS011;4706;41.844;26.082;2023-11-18T01:04:43;12.98;;;11.68;;
9334;SDS011;4706;41.844;26.082;2023-11-18T01:07:11;11.63;;;10.52;;
9334;SDS011;4706;41.844;26.082;2023-11-18T01:09:38;11.55;;;10.55;;
9334;SDS011;4706;41.844;26.082;2023-11-18T01:12:04;11.73;;;10.63;;
9334;SDS011;4706;41.844;26.082;2023-11-18T01:14:33;12.85;;;11.25;;
9334;SDS011;4706;41.844;26.082;2023-11-18T01:16:59;13.93;;;11.32;;
9334;SDS011;4706;41.844;26.082;2023-11-18T01:19:25;11.90;;;10.18;;
9334;SDS011;4706;41.844;26.082;2023-11-18T01:21:50;10.70;;;9.60;;
9334;SDS011;4706;41.844;26.082;2023-11-18T01:24:18;10.80;;;9.70;;
9334;SDS011;4706;41.844;26.082;2023-11-18T01:26:44;11.35;;;9.60;;
9334;SDS011;4706;41.844;26.082;2023-11-18T01:29:10;10.13;;;9.10;;
9334;SDS011;4706;41.844;26.082;2023-11-18T01:31:36;10.32;;;9.20;;
9334;SDS011;4706;41.844;26.082;2023-11-18T01:34:01;10.52;;;8.43;;
9334;SDS011;4706;41.844;26.082;2023-11-18T01:36:29;11.55;;;9.10;;
9334;SDS011;4706;41.844;26.082;2023-11-18T01:38:55;10.90;;;9.00;;
9334;SDS011;4706;41.844;26.082;2023-11-18T01:41:21;10.23;;;9.23;;
9334;SDS011;4706;41.844;26.082;2023-11-18T01:43:47;10.35;;;8.60;;
9334;SDS011;4706;41.844;26.082;2023-11-18T01:46:13;10.18;;;8.80;;
9334;SDS011;4706;41.844;26.082;2023-11-18T01:48:39;12.43;;;9.05;;
9334;SDS011;4706;41.844;26.082;2023-11-18T01:51:07;11.02;;;10.02;;
9334;SDS011;4706;41.844;26.082;2023-11-18T01:53:37;11.90;;;10.27;;
9334;SDS011;4706;41.844;26.082;2023-11-18T01:56:05;11.57;;;10.57;;
9334;SDS011;4706;41.844;26.082;2023-11-18T01:58:34;12.98;;;11.70;;
9334;SDS011;4706;41.844;26.082;2023-11-18T02:01:02;12.15;;;11.02;;
9334;SDS011;4706;41.844;26.082;2023-11-18T02:03:29;13.27;;;12.07;;
9334;SDS011;4706;41.844;26.082;2023-11-18T02:05:55;13.70;;;12.40;;
9334;SDS011;4706;41.844;26.082;2023-11-18T02:08:22;14.02;;;12.73;;
9334;SDS011;4706;41.844;26.082;2023-11-18T02:10:49;14.30;;;13.00;;
9334;SDS011;4706;41.844;26.082;2023-11-18T02:13:23;14.07;;;12.73;;
9334;SDS011;4706;41.844;26.082;2023-11-18T02:15:52;13.77;;;12.57;;
9334;SDS011;4706;41.844;26.082;2023-11-18T02:18:20;13.70;;;12.52;;
9334;SDS011;4706;41.844;26.082;2023-11-18T02:20:47;13.93;;;12.65;;
9334;SDS011;4706;41.844;26.082;2023-11-18T02:23:13;13.00;;;11.88;;
9334;SDS011;4706;41.844;26.082;2023-11-18T02:25:43;13.02;;;11.93;;
9334;SDS011;4706;41.844;26.082;2023-11-18T02:28:10;11.85;;;10.85;;
9334;SDS011;4706;41.844;26.082;2023-11-18T02:30:36;11.27;;;10.02;;
9334;SDS011;4706;41.844;26.082;2023-11-18T02:33:02;10.65;;;9.75;;
9334;SDS011;4706;41.844;26.082;2023-11-18T02:35:45;10.75;;;9.85;;
9334;SDS011;4706;41.844;26.082;2023-11-18T02:38:18;9.20;;;8.50;;
9334;SDS011;4706;41.844;26.082;2023-11-18T02:40:48;9.43;;;8.48;;
9334;SDS011;4706;41.844;26.082;2023-11-18T02:43:22;8.02;;;7.32;;
9334;SDS011;4706;41.844;26.082;2023-11-18T02:45:49;7.68;;;6.97;;
9334;SDS011;4706;41.844;26.082;2023-11-18T02:48:16;7.03;;;6.35;;
9334;SDS011;4706;41.844;26.082;2023-11-18T02:50:43;7.22;;;6.53;;
9334;SDS011;4706;41.844;26.082;2023-11-18T02:53:08;7.35;;;6.65;;
9334;SDS011;4706;41.844;26.082;2023-11-18T02:55:34;6.65;;;6.05;;
9334;SDS011;4706;41.844;26.082;2023-11-18T02:58:00;7.32;;;6.72;;
9334;SDS011;4706;41.844;26.082;2023-11-18T03:00:27;6.63;;;6.03;;
9334;SDS011;4706;41.844;26.082;2023-11-18T03:02:53;7.00;;;6.40;;
9334;SDS011;4706;41.844;26.082;2023-11-18T03:05:19;7.78;;;6.97;;
9334;SDS011;4706;41.844;26.082;2023-11-18T03:07:46;8.45;;;7.75;;
9334;SDS011;4706;41.844;26.082;2023-11-18T03:10:20;10.40;;;9.48;;
9334;SDS011;4706;41.844;26.082;2023-11-18T03:12:46;14.77;;;13.35;;
9334;SDS011;4706;41.844;26.082;2023-11-18T03:15:12;14.48;;;13.07;;
9334;SDS011;4706;41.844;26.082;2023-11-18T03:17:38;14.40;;;13.18;;
9334;SDS011;4706;41.844;26.082;2023-11-18T03:20:04;14.15;;;12.68;;
9334;SDS011;4706;41.844;26.082;2023-11-18T03:22:33;13.60;;;12.48;;
9334;SDS011;4706;41.844;26.082;2023-11-18T03:24:59;13.43;;;12.13;;
9334;SDS011;4706;41.844;26.082;2023-11-18T03:27:25;11.95;;;10.82;;
9334;SDS011;4706;41.844;26.082;2023-11-18T03:29:51;12.98;;;11.68;;
9334;SDS011;4706;41.844;26.082;2023-11-18T03:32:17;11.15;;;10.18;;
9334;SDS011;4706;41.844;26.082;2023-11-18T03:34:43;10.20;;;9.35;;
9334;SDS011;4706;41.844;26.082;2023-11-18T03:37:09;9.93;;;9.10;;
9334;SDS011;4706;41.844;26.082;2023-11-18T03:39:35;10.18;;;9.18;;
9334;SDS011;4706;41.844;26.082;2023-11-18T03:42:01;10.00;;;9.10;;
9334;SDS011;4706;41.844;26.082;2023-11-18T03:44:27;9.57;;;8.77;;
9334;SDS011;4706;41.844;26.082;2023-11-18T03:46:52;9.02;;;8.13;;
9334;SDS011;4706;41.844;26.082;2023-11-18T03:49:18;11.25;;;8.98;;
9334;SDS011;4706;41.844;26.082;2023-11-18T03:51:45;10.65;;;9.60;;
9334;SDS011;4706;41.844;26.082;2023-11-18T03:54:11;10.30;;;9.40;;
9334;SDS011;4706;41.844;26.082;2023-11-18T03:56:37;9.98;;;9.00;;
9334;SDS011;4706;41.844;26.082;2023-11-18T03:59:04;9.93;;;8.90;;
9334;SDS011;4706;41.844;26.082;2023-11-18T04:01:29;10.95;;;9.68;;
9334;SDS011;4706;41.844;26.082;2023-11-18T04:03:55;9.68;;;8.88;;
9334;SDS011;4706;41.844;26.082;2023-11-18T04:06:21;9.00;;;8.20;;
9334;SDS011;4706;41.844;26.082;2023-11-18T04:08:48;9.05;;;8.25;;
9334;SDS011;4706;41.844;26.082;2023-11-18T04:11:14;8.73;;;7.93;;
9334;SDS011;4706;41.844;26.082;2023-11-18T04:13:43;9.32;;;8.43;;
9334;SDS011;4706;41.844;26.082;2023-11-18T04:16:12;9.75;;;8.85;;
9334;SDS011;4706;41.844;26.082;2023-11-18T04:18:40;10.70;;;9.70;;
9334;SDS011;4706;41.844;26.082;2023-11-18T04:21:09;11.10;;;10.10;;
9334;SDS011;4706;41.844;26.082;2023-11-18T04:23:36;11.57;;;10.57;;
9334;SDS011;4706;41.844;26.082;2023-11-18T04:26:06;10.38;;;9.48;;
9334;SDS011;4706;41.844;26.082;2023-11-18T04:28:36;9.43;;;8.55;;
9334;SDS011;4706;41.844;26.082;2023-11-18T04:31:01;9.30;;;8.40;;
9334;SDS011;4706;41.844;26.082;2023-11-18T04:33:28;8.57;;;7.78;;
9334;SDS011;4706;41.844;26.082;2023-11-18T04:35:54;8.90;;;8.10;;
9334;SDS011;4706;41.844;26.082;2023-11-18T04:38:22;7.72;;;7.05;;
9334;SDS011;4706;41.844;26.082;2023-11-18T04:40:48;7.05;;;6.38;;
9334;SDS011;4706;41.844;26.082;2023-11-18T04:43:14;6.07;;;5.45;;
9334;SDS011;4706;41.844;26.082;2023-11-18T04:45:40;5.88;;;4.60;;
9334;SDS011;4706;41.844;26.082;2023-11-18T04:48:07;4.05;;;3.65;;
9334;SDS011;4706;41.844;26.082;2023-11-18T04:50:33;4.07;;;3.55;;
9334;SDS011;4706;41.844;26.082;2023-11-18T04:52:59;3.70;;;3.20;;
9334;SDS011;4706;41.844;26.082;2023-11-18T04:55:24;3.35;;;3.05;;
9334;SDS011;4706;41.844;26.082;2023-11-18T04:57:51;4.93;;;3.47;;
9334;SDS011;4706;41.844;26.082;2023-11-18T05:00:17;4.40;;;3.55;;
9334;SDS011;4706;41.844;26.082;2023-11-18T05:02:45;3.40;;;3.15;;
9334;SDS011;4706;41.844;26.082;2023-11-18T05:05:13;3.95;;;3.22;;
9334;SDS011;4706;41.844;26.082;2023-11-18T05:07:41;3.47;;;3.13;;
9334;SDS011;4706;41.844;26.082;2023-11-18T05:10:07;4.38;;;3.97;;
9334;SDS011;4706;41.844;26.082;2023-11-18T05:12:33;4.95;;;4.55;;
9334;SDS011;4706;41.844;26.082;2023-11-18T05:14:59;5.50;;;5.00;;
9334;SDS011;4706;41.844;26.082;2023-11-18T05:17:26;6.03;;;4.90;;
9334;SDS011;4706;41.844;26.082;2023-11-18T05:19:52;5.57;;;5.10;;
9334;SDS011;4706;41.844;26.082;2023-11-18T05:22:19;5.18;;;4.68;;
9334;SDS011;4706;41.844;26.082;2023-11-18T05:24:46;3.78;;;3.50;;
9334;SDS011;4706;41.844;26.082;2023-11-18T05:27:11;3.58;;;3.30;;
9334;SDS011;4706;41.844;26.082;2023-11-18T05:29:37;3.47;;;3.17;;
9334;SDS011;4706;41.844;26.082;2023-11-18T05:32:03;3.10;;;2.47;;
9334;SDS011;4706;41.844;26.082;2023-11-18T05:34:29;2.45;;;2.25;;
9334;SDS011;4706;41.844;26.082;2023-11-18T05:36:55;2.50;;;2.30;;
9334;SDS011;4706;41.844;26.082;2023-11-18T05:39:20;2.42;;;1.67;;
9334;SDS011;4706;41.844;26.082;2023-11-18T05:41:49;1.67;;;1.50;;
9334;SDS011;4706;41.844;26.082;2023-11-18T05:44:16;2.53;;;1.55;;
9334;SDS011;4706;41.844;26.082;2023-11-18T05:46:45;1.55;;;1.45;;
9334;SDS011;4706;41.844;26.082;2023-11-18T05:49:17;1.40;;;1.30;;
9334;SDS011;4706;41.844;26.082;2023-11-18T05:51:43;1.85;;;1.60;;
9334;SDS011;4706;41.844;26.082;2023-11-18T05:54:09;1.60;;;1.50;;
9334;SDS011;4706;41.844;26.082;2023-11-18T05:56:35;1.58;;;1.45;;
9334;SDS011;4706;41.844;26.082;2023-11-18T05:59:01;2.45;;;1.50;;
9334;SDS011;4706;41.844;26.082;2023-11-18T06:01:28;2.60;;;1.70;;
9334;SDS011;4706;41.844;26.082;2023-11-18T06:03:54;1.60;;;1.50;;
9334;SDS011;4706;41.844;26.082;2023-11-18T06:06:19;1.85;;;1.50;;
9334;SDS011;4706;41.844;26.082;2023-11-18T06:08:46;3.47;;;2.90;;
9334;SDS011;4706;41.844;26.082;2023-11-18T06:11:13;2.65;;;2.25;;
9334;SDS011;4706;41.844;26.082;2023-11-18T06:13:40;2.88;;;1.90;;
9334;SDS011;4706;41.844;26.082;2023-11-18T06:16:12;4.13;;;3.83;;
9334;SDS011;4706;41.844;26.082;2023-11-18T06:18:39;3.90;;;3.55;;
9334;SDS011;4706;41.844;26.082;2023-11-18T06:21:06;20.15;;;15.20;;
9334;SDS011;4706;41.844;26.082;2023-11-18T06:23:32;9.30;;;7.95;;
9334;SDS011;4706;41.844;26.082;2023-11-18T06:25:58;10.43;;;8.73;;
9334;SDS011;4706;41.844;26.082;2023-11-18T06:28:25;6.25;;;5.65;;
9334;SDS011;4706;41.844;26.082;2023-11-18T06:30:53;8.82;;;7.93;;
9334;SDS011;4706;41.844;26.082;2023-11-18T06:33:18;3.10;;;2.60;;
9334;SDS011;4706;41.844;26.082;2023-11-18T06:35:48;3.00;;;2.63;;
9334;SDS011;4706;41.844;26.082;2023-11-18T06:38:13;8.25;;;5.75;;
9334;SDS011;4706;41.844;26.082;2023-11-18T06:40:40;6.00;;;4.30;;
9334;SDS011;4706;41.844;26.082;2023-11-18T06:43:06;4.85;;;3.85;;
9334;SDS011;4706;41.844;26.082;2023-11-18T06:45:36;4.13;;;2.63;;
9334;SDS011;4706;41.844;26.082;2023-11-18T06:48:05;2.17;;;1.90;;
9334;SDS011;4706;41.844;26.082;2023-11-18T06:50:31;8.07;;;7.30;;
9334;SDS011;4706;41.844;26.082;2023-11-18T06:52:57;2.70;;;2.50;;
9334;SDS011;4706;41.844;26.082;2023-11-18T06:55:24;4.40;;;4.00;;
9334;SDS011;4706;41.844;26.082;2023-11-18T06:57:51;4.45;;;3.30;;
9334;SDS011;4706;41.844;26.082;2023-11-18T07:00:17;4.72;;;4.07;;
9334;SDS011;4706;41.844;26.082;2023-11-18T07:02:43;7.25;;;5.60;;
9334;SDS011;4706;41.844;26.082;2023-11-18T07:05:08;3.33;;;3.03;;
9334;SDS011;4706;41.844;26.082;2023-11-18T07:07:34;4.38;;;3.97;;
9334;SDS011;4706;41.844;26.082;2023-11-18T07:10:00;4.20;;;3.80;;
9334;SDS011;4706;41.844;26.082;2023-11-18T07:12:25;4.03;;;2.80;;
9334;SDS011;4706;41.844;26.082;2023-11-18T07:14:51;4.65;;;4.13;;
9334;SDS011;4706;41.844;26.082;2023-11-18T07:17:19;11.80;;;9.40;;
9334;SDS011;4706;41.844;26.082;2023-11-18T07:19:44;3.53;;;3.22;;
9334;SDS011;4706;41.844;26.082;2023-11-18T07:22:10;3.50;;;2.55;;
9334;SDS011;4706;41.844;26.082;2023-11-18T07:24:36;3.40;;;3.13;;
9334;SDS011;4706;41.844;26.082;2023-11-18T07:27:02;4.78;;;4.38;;
9334;SDS011;4706;41.844;26.082;2023-11-18T07:29:30;5.25;;;3.95;;
9334;SDS011;4706;41.844;26.082;2023-11-18T07:31:57;5.85;;;4.30;;
9334;SDS011;4706;41.844;26.082;2023-11-18T07:34:23;3.50;;;3.20;;
9334;SDS011;4706;41.844;26.082;2023-11-18T07:36:49;3.88;;;3.58;;
9334;SDS011;4706;41.844;26.082;2023-11-18T07:39:15;3.65;;;3.35;;
9334;SDS011;4706;41.844;26.082;2023-11-18T07:41:41;4.93;;;3.20;;
9334;SDS011;4706;41.844;26.082;2023-11-18T07:44:07;4.00;;;3.63;;
9334;SDS011;4706;41.844;26.082;2023-11-18T07:46:35;3.05;;;2.70;;
9334;SDS011;4706;41.844;26.082;2023-11-18T07:49:03;3.30;;;3.00;;
9334;SDS011;4706;41.844;26.082;2023-11-18T07:51:29;3.60;;;3.30;;
9334;SDS011;4706;41.844;26.082;2023-11-18T07:53:55;3.50;;;3.20;;
9334;SDS011;4706;41.844;26.082;2023-11-18T07:56:20;2.58;;;2.38;;
9334;SDS011;4706;41.844;26.082;2023-11-18T07:58:49;3.13;;;2.92;;
9334;SDS011;4706;41.844;26.082;2023-11-18T08:01:17;3.60;;;3.30;;
9334;SDS011;4706;41.844;26.082;2023-11-18T08:03:43;3.85;;;3.20;;
9334;SDS011;4706;41.844;26.082;2023-11-18T08:06:10;3.50;;;3.20;;
9334;SDS011;4706;41.844;26.082;2023-11-18T08:08:37;8.68;;;6.85;;
9334;SDS011;4706;41.844;26.082;2023-11-18T08:11:06;3.22;;;2.92;;
9334;SDS011;4706;41.844;26.082;2023-11-18T08:13:33;3.75;;;3.45;;
9334;SDS011;4706;41.844;26.082;2023-11-18T08:15:58;3.88;;;3.58;;
9334;SDS011;4706;41.844;26.082;2023-11-18T08:18:25;4.30;;;3.85;;
9334;SDS011;4706;41.844;26.082;2023-11-18T08:20:52;3.70;;;3.40;;
9334;SDS011;4706;41.844;26.082;2023-11-18T08:23:18;4.07;;;3.50;;
9334;SDS011;4706;41.844;26.082;2023-11-18T08:25:44;3.63;;;3.33;;
9334;SDS011;4706;41.844;26.082;2023-11-18T08:28:11;4.97;;;3.65;;
9334;SDS011;4706;41.844;26.082;2023-11-18T08:30:39;4.25;;;3.67;;
9334;SDS011;4706;41.844;26.082;2023-11-18T08:33:04;3.67;;;3.25;;
9334;SDS011;4706;41.844;26.082;2023-11-18T08:35:34;3.45;;;3.15;;
9334;SDS011;4706;41.844;26.082;2023-11-18T08:38:02;3.10;;;2.85;;
9334;SDS011;4706;41.844;26.082;2023-11-18T08:40:29;4.20;;;3.80;;
9334;SDS011;4706;41.844;26.082;2023-11-18T08:42:55;3.15;;;2.85;;
9334;SDS011;4706;41.844;26.082;2023-11-18T08:45:22;3.33;;;2.75;;
9334;SDS011;4706;41.844;26.082;2023-11-18T08:47:58;5.50;;;4.80;;
9334;SDS011;4706;41.844;26.082;2023-11-18T08:50:26;3.80;;;3.50;;
9334;SDS011;4706;41.844;26.082;2023-11-18T08:52:54;3.88;;;3.40;;
9334;SDS011;4706;41.844;26.082;2023-11-18T08:55:23;3.10;;;2.80;;
9334;SDS011;4706;41.844;26.082;2023-11-18T08:58:08;3.70;;;3.30;;
9334;SDS011;4706;41.844;26.082;2023-11-18T09:00:44;3.88;;;3.58;;
9334;SDS011;4706;41.844;26.082;2023-11-18T09:03:20;4.07;;;3.55;;
9334;SDS011;4706;41.844;26.082;2023-11-18T09:05:51;3.60;;;3.30;;
9334;SDS011;4706;41.844;26.082;2023-11-18T09:10:55;3.42;;;3.13;;
9334;SDS011;4706;41.844;26.082;2023-11-18T09:13:22;3.67;;;3.38;;
9334;SDS011;4706;41.844;26.082;2023-11-18T09:15:54;3.92;;;3.42;;
9334;SDS011;4706;41.844;26.082;2023-11-18T09:18:21;3.70;;;3.40;;
9334;SDS011;4706;41.844;26.082;2023-11-18T09:20:47;3.70;;;2.85;;
9334;SDS011;4706;41.844;26.082;2023-11-18T09:23:13;5.35;;;3.15;;
9334;SDS011;4706;41.844;26.082;2023-11-18T09:25:41;5.13;;;2.67;;
9334;SDS011;4706;41.844;26.082;2023-11-18T09:28:07;3.35;;;2.80;;
9334;SDS011;4706;41.844;26.082;2023-11-18T09:30:36;2.35;;;2.17;;
9334;SDS011;4706;41.844;26.082;2023-11-18T09:33:04;3.42;;;2.00;;
9334;SDS011;4706;41.844;26.082;2023-11-18T09:35:39;2.53;;;2.28;;
9334;SDS011;4706;41.844;26.082;2023-11-18T09:38:06;2.35;;;2.15;;
9334;SDS011;4706;41.844;26.082;2023-11-18T09:40:32;4.60;;;2.50;;
9334;SDS011;4706;41.844;26.082;2023-11-18T09:43:06;3.90;;;2.60;;
9334;SDS011;4706;41.844;26.082;2023-11-18T09:45:34;2.30;;;2.05;;
9334;SDS011;4706;41.844;26.082;2023-11-18T09:48:01;3.03;;;2.50;;
9334;SDS011;4706;41.844;26.082;2023-11-18T09:50:32;3.72;;;2.60;;
9334;SDS011;4706;41.844;26.082;2023-11-18T09:52:58;4.25;;;2.58;;
9334;SDS011;4706;41.844;26.082;2023-11-18T09:55:34;2.83;;;2.42;;
9334;SDS011;4706;41.844;26.082;2023-11-18T09:58:06;3.33;;;2.33;;
9334;SDS011;4706;41.844;26.082;2023-11-18T10:00:38;3.05;;;2.00;;
9334;SDS011;4706;41.844;26.082;2023-11-18T10:03:07;4.80;;;2.08;;
9334;SDS011;4706;41.844;26.082;2023-11-18T10:05:35;3.00;;;1.90;;
9334;SDS011;4706;41.844;26.082;2023-11-18T10:08:04;2.90;;;2.05;;
9334;SDS011;4706;41.844;26.082;2023-11-18T10:10:33;4.43;;;2.45;;
9334;SDS011;4706;41.844;26.082;2023-11-18T10:13:03;3.17;;;1.90;;
9334;SDS011;4706;41.844;26.082;2023-11-18T10:15:33;3.35;;;2.45;;
9334;SDS011;4706;41.844;26.082;2023-11-18T10:17:59;3.72;;;2.47;;
9334;SDS011;4706;41.844;26.082;2023-11-18T10:20:47;2.42;;;2.22;;
9334;SDS011;4706;41.844;26.082;2023-11-18T10:23:19;3.22;;;2.70;;
9334;SDS011;4706;41.844;26.082;2023-11-18T10:25:47;2.67;;;2.10;;
9334;SDS011;4706;41.844;26.082;2023-11-18T10:28:25;3.00;;;2.30;;
9334;SDS011;4706;41.844;26.082;2023-11-18T10:30:53;2.40;;;2.20;;
9334;SDS011;4706;41.844;26.082;2023-11-18T10:33:19;4.60;;;2.65;;
9334;SDS011;4706;41.844;26.082;2023-11-18T10:35:50;3.38;;;2.47;;
9334;SDS011;4706;41.844;26.082;2023-11-18T10:38:16;3.45;;;2.50;;
9334;SDS011;4706;41.844;26.082;2023-11-18T10:40:42;3.25;;;1.95;;
9334;SDS011;4706;41.844;26.082;2023-11-18T10:43:09;3.00;;;2.35;;
9334;SDS011;4706;41.844;26.082;2023-11-18T10:45:35;5.97;;;4.82;;
9334;SDS011;4706;41.844;26.082;2023-11-18T10:48:07;2.58;;;2.38;;
9334;SDS011;4706;41.844;26.082;2023-11-18T10:50:33;7.60;;;2.42;;
9334;SDS011;4706;41.844;26.082;2023-11-18T10:53:02;3.25;;;1.80;;
9334;SDS011;4706;41.844;26.082;2023-11-18T10:55:37;3.13;;;2.60;;
9334;SDS011;4706;41.844;26.082;2023-11-18T10:58:03;3.28;;;2.97;;
9334;SDS011;4706;41.844;26.082;2023-11-18T11:00:45;6.28;;;5.07;;
9334;SDS011;4706;41.844;26.082;2023-11-18T11:03:13;2.15;;;1.90;;
9334;SDS011;4706;41.844;26.082;2023-11-18T11:05:39;5.05;;;4.55;;
9334;SDS011;4706;41.844;26.082;2023-11-18T11:08:08;4.65;;;3.65;;
9334;SDS011;4706;41.844;26.082;2023-11-18T11:10:34;8.30;;;5.30;;
9334;SDS011;4706;41.844;26.082;2023-11-18T11:13:01;6.18;;;5.57;;
9334;SDS011;4706;41.844;26.082;2023-11-18T11:15:31;3.97;;;2.72;;
9334;SDS011;4706;41.844;26.082;2023-11-18T11:18:04;4.97;;;2.30;;
9334;SDS011;4706;41.844;26.082;2023-11-18T11:20:37;6.05;;;2.95;;
9334;SDS011;4706;41.844;26.082;2023-11-18T11:34:16;4.93;;;3.00;;
9334;SDS011;4706;41.844;26.082;2023-11-18T11:36:49;5.65;;;4.07;;
9334;SDS011;4706;41.844;26.082;2023-11-18T11:39:18;6.57;;;2.85;;
9334;SDS011;4706;41.844;26.082;2023-11-18T11:41:51;5.35;;;3.00;;
9334;SDS011;4706;41.844;26.082;2023-11-18T11:44:19;4.05;;;3.55;;
9334;SDS011;4706;41.844;26.082;2023-11-18T11:46:46;4.45;;;3.50;;
9334;SDS011;4706;41.844;26.082;2023-11-18T11:49:19;3.33;;;2.20;;
9334;SDS011;4706;41.844;26.082;2023-11-18T11:52:07;4.55;;;2.80;;
9334;SDS011;4706;41.844;26.082;2023-11-18T11:55:15;2.92;;;2.40;;
9334;SDS011;4706;41.844;26.082;2023-11-18T11:57:38;3.20;;;2.85;;
9334;SDS011;4706;41.844;26.082;2023-11-18T12:00:04;3.00;;;2.40;;
9334;SDS011;4706;41.844;26.082;2023-11-18T12:02:40;3.28;;;2.90;;
9334;SDS011;4706;41.844;26.082;2023-11-18T12:05:15;3.30;;;2.88;;
9334;SDS011;4706;41.844;26.082;2023-11-18T12:07:44;5.25;;;2.92;;
9334;SDS011;4706;41.844;26.082;2023-11-18T12:10:12;3.63;;;3.15;;
9334;SDS011;4706;41.844;26.082;2023-11-18T12:12:45;4.50;;;4.00;;
9334;SDS011;4706;41.844;26.082;2023-11-18T12:15:11;5.32;;;3.25;;
9334;SDS011;4706;41.844;26.082;2023-11-18T12:23:35;2.97;;;2.60;;
9334;SDS011;4706;41.844;26.082;2023-11-18T12:26:01;3.40;;;2.58;;
9334;SDS011;4706;41.844;26.082;2023-11-18T12:28:29;3.75;;;2.97;;
9334;SDS011;4706;41.844;26.082;2023-11-18T12:31:03;3.50;;;3.15;;
9334;SDS011;4706;41.844;26.082;2023-11-18T12:41:38;3.38;;;3.08;;
9334;SDS011;4706;41.844;26.082;2023-11-18T12:46:50;3.88;;;2.35;;
9334;SDS011;4706;41.844;26.082;2023-11-18T12:49:23;2.75;;;2.20;;
9334;SDS011;4706;41.844;26.082;2023-11-18T12:51:53;3.13;;;2.20;;
9334;SDS011;4706;41.844;26.082;2023-11-18T12:54:25;2.95;;;1.90;;
9334;SDS011;4706;41.844;26.082;2023-11-18T12:56:55;2.30;;;1.95;;
9334;SDS011;4706;41.844;26.082;2023-11-18T12:59:21;4.53;;;3.22;;
9334;SDS011;4706;41.844;26.082;2023-11-18T13:01:48;4.68;;;2.80;;
9334;SDS011;4706;41.844;26.082;2023-11-18T13:04:22;4.65;;;2.55;;
9334;SDS011;4706;41.844;26.082;2023-11-18T13:06:49;5.00;;;3.50;;
9334;SDS011;4706;41.844;26.082;2023-11-18T13:09:17;6.43;;;4.03;;
9334;SDS011;4706;41.844;26.082;2023-11-18T13:11:58;3.78;;;2.75;;
9334;SDS011;4706;41.844;26.082;2023-11-18T13:14:29;4.65;;;3.47;;
9334;SDS011;4706;41.844;26.082;2023-11-18T13:17:04;5.50;;;3.78;;
9334;SDS011;4706;41.844;26.082;2023-11-18T13:19:34;7.90;;;5.70;;
9334;SDS011;4706;41.844;26.082;2023-11-18T13:22:00;6.57;;;4.63;;
9334;SDS011;4706;41.844;26.082;2023-11-18T13:24:37;3.72;;;2.45;;
9334;SDS011;4706;41.844;26.082;2023-11-18T13:27:05;7.10;;;4.80;;
9334;SDS011;4706;41.844;26.082;2023-11-18T13:29:32;6.47;;;4.40;;
9334;SDS011;4706;41.844;26.082;2023-11-18T13:31:59;10.07;;;5.72;;
9334;SDS011;4706;41.844;26.082;2023-11-18T13:34:29;13.40;;;8.93;;
9334;SDS011;4706;41.844;26.082;2023-11-18T13:36:58;13.23;;;8.18;;
9334;SDS011;4706;41.844;26.082;2023-11-18T13:39:24;11.57;;;6.95;;
9334;SDS011;4706;41.844;26.082;2023-11-18T13:41:52;12.90;;;8.85;;
9334;SDS011;4706;41.844;26.082;2023-11-18T13:47:18;14.60;;;9.23;;
9334;SDS011;4706;41.844;26.082;2023-11-18T13:49:44;13.15;;;8.63;;
9334;SDS011;4706;41.844;26.082;2023-11-18T13:52:12;8.10;;;5.32;;
9334;SDS011;4706;41.844;26.082;2023-11-18T13:54:41;9.77;;;5.53;;
9334;SDS011;4706;41.844;26.082;2023-11-18T13:57:10;9.00;;;6.75;;
9334;SDS011;4706;41.844;26.082;2023-11-18T13:59:37;8.15;;;5.40;;
9334;SDS011;4706;41.844;26.082;2023-11-18T14:02:03;7.40;;;5.57;;
9334;SDS011;4706;41.844;26.082;2023-11-18T14:04:29;4.72;;;3.00;;
9334;SDS011;4706;41.844;26.082;2023-11-18T14:07:00;4.25;;;2.97;;
9334;SDS011;4706;41.844;26.082;2023-11-18T14:09:29;2.58;;;1.80;;
9334;SDS011;4706;41.844;26.082;2023-11-18T14:11:57;2.78;;;1.90;;
9334;SDS011;4706;41.844;26.082;2023-11-18T14:14:23;2.65;;;2.22;;
9334;SDS011;4706;41.844;26.082;2023-11-18T14:16:50;3.53;;;2.50;;
9334;SDS011;4706;41.844;26.082;2023-11-18T14:19:19;3.50;;;2.78;;
9334;SDS011;4706;41.844;26.082;2023-11-18T14:21:44;2.72;;;2.30;;
9334;SDS011;4706;41.844;26.082;2023-11-18T14:24:11;2.83;;;2.00;;
9334;SDS011;4706;41.844;26.082;2023-11-18T14:26:37;5.70;;;3.28;;
9334;SDS011;4706;41.844;26.082;2023-11-18T14:29:05;3.50;;;2.60;;
9334;SDS011;4706;41.844;26.082;2023-11-18T14:31:32;4.70;;;2.97;;
9334;SDS011;4706;41.844;26.082;2023-11-18T14:34:01;6.25;;;3.70;;
9334;SDS011;4706;41.844;26.082;2023-11-18T14:36:27;5.68;;;2.15;;
9334;SDS011;4706;41.844;26.082;2023-11-18T14:38:54;3.35;;;2.83;;
9334;SDS011;4706;41.844;26.082;2023-11-18T14:41:20;4.75;;;3.35;;
9334;SDS011;4706;41.844;26.082;2023-11-18T14:43:54;5.43;;;3.20;;
9334;SDS011;4706;41.844;26.082;2023-11-18T14:46:20;4.68;;;2.20;;
9334;SDS011;4706;41.844;26.082;2023-11-18T14:48:46;7.93;;;4.07;;
9334;SDS011;4706;41.844;26.082;2023-11-18T14:51:11;4.60;;;3.28;;
9334;SDS011;4706;41.844;26.082;2023-11-18T14:53:37;4.25;;;2.13;;
9334;SDS011;4706;41.844;26.082;2023-11-18T14:56:03;2.65;;;2.45;;
9334;SDS011;4706;41.844;26.082;2023-11-18T14:58:31;7.97;;;6.80;;
9334;SDS011;4706;41.844;26.082;2023-11-18T15:01:01;3.50;;;3.13;;
9334;SDS011;4706;41.844;26.082;2023-11-18T15:03:27;3.40;;;2.40;;
9334;SDS011;4706;41.844;26.082;2023-11-18T15:05:53;4.82;;;2.80;;
9334;SDS011;4706;41.844;26.082;2023-11-18T15:08:19;4.32;;;2.50;;
9334;SDS011;4706;41.844;26.082;2023-11-18T15:10:45;2.78;;;2.47;;
9334;SDS011;4706;41.844;26.082;2023-11-18T15:13:11;2.90;;;2.30;;
9334;SDS011;4706;41.844;26.082;2023-11-18T15:15:44;5.57;;;4.20;;
9334;SDS011;4706;41.844;26.082;2023-11-18T15:18:13;3.60;;;2.85;;
9334;SDS011;4706;41.844;26.082;2023-11-18T15:20:39;8.27;;;3.13;;
9334;SDS011;4706;41.844;26.082;2023-11-18T15:23:08;3.67;;;2.42;;
9334;SDS011;4706;41.844;26.082;2023-11-18T15:25:35;3.03;;;2.17;;
9334;SDS011;4706;41.844;26.082;2023-11-18T15:28:00;3.35;;;2.90;;
9334;SDS011;4706;41.844;26.082;2023-11-18T15:30:27;4.03;;;3.05;;
9334;SDS011;4706;41.844;26.082;2023-11-18T15:32:52;3.83;;;2.88;;